Time;durP1;ratioP1;P1;durP2;ratioP2;P2;SDS_P1;SDS_P2;PMS_P1;PMS_P2;Temp;Humidity;BMP_temperature;BMP_pressure;BME280_temperature;BME280_humidity;BME280_pressure;Samples;Min_cycle;Max_cycle;Signal;HPM_P1;HPM_P2
2023/01/29 00:02:20;;;;;;;15.38;8.45;;;;;;;;;;5073619;28;20045;-56
2023/01/29 00:04:46;;;;;;;17.85;8.85;;;;;;;;;;5072511;28;20052;-57
2023/01/29 00:07:12;;;;;;;21.15;8.50;;;;;;;;;;5073308;28;20045;-57
2023/01/29 00:09:38;;;;;;;14.27;7.93;;;;;;;;;;5072864;28;20041;-56
2023/01/29 00:12:08;;;;;;;14.15;8.50;;;;;;;;;;5073018;28;20341;-56
2023/01/29 00:14:34;;;;;;;21.90;11.48;;;;;;;;;;5072927;28;20045;-56
2023/01/29 00:17:00;;;;;;;15.75;8.32;;;;;;;;;;5073396;28;20090;-56
2023/01/29 00:19:26;;;;;;;15.57;9.05;;;;;;;;;;5068995;28;20711;-56
2023/01/29 00:21:53;;;;;;;13.85;8.05;;;;;;;;;;5070891;28;20518;-56
2023/01/29 00:24:19;;;;;;;17.95;9.13;;;;;;;;;;5073138;28;20125;-56
2023/01/29 00:26:45;;;;;;;16.40;9.13;;;;;;;;;;5071581;28;20064;-56
2023/01/29 00:29:11;;;;;;;13.00;7.93;;;;;;;;;;5072943;28;20071;-56
2023/01/29 00:31:37;;;;;;;17.80;9.73;;;;;;;;;;5073333;28;20072;-56
2023/01/29 00:34:03;;;;;;;17.90;10.45;;;;;;;;;;5072490;28;20033;-56
2023/01/29 00:36:30;;;;;;;15.48;9.13;;;;;;;;;;5067536;28;20098;-56
2023/01/29 00:39:01;;;;;;;18.50;10.18;;;;;;;;;;5074089;28;20415;-56
2023/01/29 00:47:00;;;;;;;18.27;9.35;;;;;;;;;;5073513;28;20666;-56
2023/01/29 00:49:26;;;;;;;15.07;8.10;;;;;;;;;;5072843;28;20995;-56
2023/01/29 00:54:37;;;;;;;16.27;9.52;;;;;;;;;;5072962;28;20511;-56
2023/01/29 00:57:04;;;;;;;13.95;8.13;;;;;;;;;;5072093;28;20927;-56
2023/01/29 00:59:30;;;;;;;13.60;8.20;;;;;;;;;;5073710;28;20049;-56
2023/01/29 01:04:41;;;;;;;17.70;9.13;;;;;;;;;;5074410;28;20288;-56
2023/01/29 01:07:07;;;;;;;16.80;9.27;;;;;;;;;;5072608;28;20051;-56
2023/01/29 01:12:21;;;;;;;17.65;9.10;;;;;;;;;;5072653;28;20591;-56
2023/01/29 01:14:47;;;;;;;17.15;9.73;;;;;;;;;;5073916;27;20041;-56
2023/01/29 01:17:14;;;;;;;17.95;9.88;;;;;;;;;;5073670;28;20051;-56
2023/01/29 01:19:40;;;;;;;16.83;9.40;;;;;;;;;;5072551;27;20522;-56
2023/01/29 01:22:06;;;;;;;17.83;8.73;;;;;;;;;;5071654;27;20041;-56
2023/01/29 01:24:32;;;;;;;17.00;9.23;;;;;;;;;;5070774;28;20514;-56
2023/01/29 01:26:58;;;;;;;18.50;10.25;;;;;;;;;;5072393;28;20048;-55
2023/01/29 01:29:24;;;;;;;18.30;10.45;;;;;;;;;;5073834;28;20084;-56
2023/01/29 01:31:52;;;;;;;19.92;10.68;;;;;;;;;;5070639;28;20041;-56
2023/01/29 01:34:18;;;;;;;21.60;11.57;;;;;;;;;;5074045;28;20044;-56
2023/01/29 01:36:45;;;;;;;20.42;10.38;;;;;;;;;;5069771;28;20701;-56
2023/01/29 01:39:11;;;;;;;19.40;9.80;;;;;;;;;;5073034;28;20051;-56
2023/01/29 01:41:37;;;;;;;17.90;9.70;;;;;;;;;;5073080;28;20604;-56
2023/01/29 01:44:05;;;;;;;21.08;11.05;;;;;;;;;;5073502;28;20044;-56
2023/01/29 01:46:32;;;;;;;17.05;10.05;;;;;;;;;;5085234;27;20072;-56
2023/01/29 01:49:02;;;;;;;21.98;12.15;;;;;;;;;;5072326;28;20091;-56
2023/01/29 01:51:30;;;;;;;22.75;11.45;;;;;;;;;;5072803;28;20048;-56
2023/01/29 01:53:58;;;;;;;22.10;11.05;;;;;;;;;;5067240;28;20575;-56
2023/01/29 01:56:27;;;;;;;20.80;12.00;;;;;;;;;;5072994;28;20064;-56
2023/01/29 01:58:55;;;;;;;19.08;11.02;;;;;;;;;;5073041;28;20048;-56
2023/01/29 02:01:26;;;;;;;23.92;12.45;;;;;;;;;;5075899;28;20044;-56
2023/01/29 02:09:34;;;;;;;19.73;11.43;;;;;;;;;;5073249;28;20521;-56
2023/01/29 02:12:01;;;;;;;23.30;12.57;;;;;;;;;;5075334;28;20348;-56
2023/01/29 02:14:27;;;;;;;28.70;12.27;;;;;;;;;;5076579;28;20032;-56
2023/01/29 02:16:53;;;;;;;24.45;13.25;;;;;;;;;;5076847;28;20091;-56
2023/01/29 02:19:55;;;;;;;22.10;11.52;;;;;;;;;;5075982;28;20039;-56
2023/01/29 02:22:29;;;;;;;25.38;13.00;;;;;;;;;;5073546;28;20131;-56
2023/01/29 02:25:08;;;;;;;19.38;12.40;;;;;;;;;;5074900;28;20057;-56
2023/01/29 02:27:53;;;;;;;26.25;13.15;;;;;;;;;;5074747;28;20029;-56
2023/01/29 02:30:25;;;;;;;20.67;11.55;;;;;;;;;;5076164;28;20542;-57
2023/01/29 02:32:57;;;;;;;24.27;12.55;;;;;;;;;;5076075;28;20036;-56
2023/01/29 02:35:30;;;;;;;21.10;11.68;;;;;;;;;;5076233;27;20163;-56
2023/01/29 02:38:12;;;;;;;23.30;11.05;;;;;;;;;;5073043;28;21245;-55
2023/01/29 02:40:46;;;;;;;15.57;8.00;;;;;;;;;;5075585;27;20048;-56
2023/01/29 02:43:12;;;;;;;26.75;11.23;;;;;;;;;;5072240;28;20049;-56
2023/01/29 02:45:44;;;;;;;29.70;13.70;;;;;;;;;;5075825;28;20102;-56
2023/01/29 02:48:14;;;;;;;21.95;11.63;;;;;;;;;;5075557;28;20094;-56
2023/01/29 02:50:46;;;;;;;24.00;11.77;;;;;;;;;;5074399;28;20571;-56
2023/01/29 02:53:18;;;;;;;23.63;13.02;;;;;;;;;;5073322;28;20047;-56
2023/01/29 02:55:48;;;;;;;22.90;12.43;;;;;;;;;;5067540;28;20068;-56
2023/01/29 02:58:24;;;;;;;23.35;11.43;;;;;;;;;;5074812;28;20052;-56
2023/01/29 03:00:51;;;;;;;21.77;11.68;;;;;;;;;;5089873;27;20132;-56
2023/01/29 03:03:17;;;;;;;22.35;13.13;;;;;;;;;;5073756;28;20707;-56
2023/01/29 03:06:01;;;;;;;23.17;12.48;;;;;;;;;;5074333;28;20043;-56
2023/01/29 03:08:41;;;;;;;20.58;11.68;;;;;;;;;;5073956;28;20083;-56
2023/01/29 03:11:12;;;;;;;24.33;11.77;;;;;;;;;;5073602;28;20095;-56
2023/01/29 03:13:47;;;;;;;22.70;12.95;;;;;;;;;;5074671;28;21168;-56
2023/01/29 03:16:18;;;;;;;20.75;12.63;;;;;;;;;;5074158;28;20083;-56
2023/01/29 03:18:49;;;;;;;18.95;9.88;;;;;;;;;;5073542;28;20556;-56
2023/01/29 03:32:31;;;;;;;20.92;11.73;;;;;;;;;;5072212;28;20049;-56
2023/01/29 03:35:00;;;;;;;19.30;10.15;;;;;;;;;;5071963;28;20047;-56
2023/01/29 03:37:33;;;;;;;27.92;13.20;;;;;;;;;;5074575;28;20040;-56
2023/01/29 03:40:00;;;;;;;21.35;12.10;;;;;;;;;;5073987;28;20413;-56
2023/01/29 03:42:32;;;;;;;19.67;11.25;;;;;;;;;;5074193;28;20044;-56
2023/01/29 03:45:17;;;;;;;17.75;9.23;;;;;;;;;;5073270;28;20050;-56
2023/01/29 03:47:46;;;;;;;25.42;11.63;;;;;;;;;;5073972;28;20071;-56
2023/01/29 03:50:21;;;;;;;24.33;11.65;;;;;;;;;;5072964;28;20041;-56
2023/01/29 03:52:56;;;;;;;24.35;11.52;;;;;;;;;;5070856;28;21289;-56
2023/01/29 03:55:24;;;;;;;23.63;11.45;;;;;;;;;;5070597;28;20697;-56
2023/01/29 03:57:57;;;;;;;25.90;11.60;;;;;;;;;;5071693;28;20452;-56
2023/01/29 04:00:28;;;;;;;20.20;11.45;;;;;;;;;;5087313;27;20177;-56
2023/01/29 04:02:57;;;;;;;18.67;11.70;;;;;;;;;;5073887;28;20601;-56
2023/01/29 04:05:25;;;;;;;19.95;10.68;;;;;;;;;;5071877;28;20048;-56
2023/01/29 04:07:53;;;;;;;21.27;11.73;;;;;;;;;;5072234;28;20045;-56
2023/01/29 04:10:22;;;;;;;21.42;11.35;;;;;;;;;;5071436;28;20914;-56
2023/01/29 04:13:03;;;;;;;21.60;11.10;;;;;;;;;;5071928;28;20142;-57
2023/01/29 04:15:31;;;;;;;23.38;11.23;;;;;;;;;;5073131;28;20041;-56
2023/01/29 04:17:57;;;;;;;20.45;12.23;;;;;;;;;;5073154;28;20573;-56
2023/01/29 04:20:24;;;;;;;22.33;11.85;;;;;;;;;;5071026;28;20062;-56
2023/01/29 04:22:51;;;;;;;26.20;12.52;;;;;;;;;;5100898;27;20587;-56
2023/01/29 04:25:25;;;;;;;24.77;11.85;;;;;;;;;;5070237;28;20614;-56
2023/01/29 04:28:04;;;;;;;23.77;11.35;;;;;;;;;;5070467;28;20040;-56
2023/01/29 04:30:36;;;;;;;24.75;11.75;;;;;;;;;;5071182;28;20123;-56
2023/01/29 04:33:17;;;;;;;25.15;11.35;;;;;;;;;;5069731;28;20335;-56
2023/01/29 04:35:49;;;;;;;20.95;8.48;;;;;;;;;;5072753;28;20051;-56
2023/01/29 04:38:15;;;;;;;;;;;;;;;;;;5073782;28;20044;-56
2023/01/29 04:40:41;;;;;;;21.35;12.15;;;;;;;;;;5072711;28;19952;-56
2023/01/29 04:43:09;;;;;;;17.40;10.88;;;;;;;;;;5071781;28;20051;-56
2023/01/29 04:46:08;;;;;;;23.65;11.23;;;;;;;;;;5072653;28;20049;-56
2023/01/29 04:48:55;;;;;;;22.35;11.52;;;;;;;;;;5060399;28;20143;-56
2023/01/29 04:51:21;;;;;;;17.92;10.35;;;;;;;;;;5072163;28;20045;-56
2023/01/29 04:53:56;;;;;;;28.25;13.77;;;;;;;;;;5070474;28;20044;-56
2023/01/29 04:56:32;;;;;;;24.95;12.90;;;;;;;;;;5071406;28;20048;-56
2023/01/29 04:59:01;;;;;;;23.58;13.13;;;;;;;;;;5071495;28;20129;-56
2023/01/29 05:01:31;;;;;;;21.15;11.95;;;;;;;;;;5070545;28;20583;-56
2023/01/29 05:03:58;;;;;;;22.30;11.63;;;;;;;;;;5072610;27;20091;-56
2023/01/29 05:06:25;;;;;;;22.33;10.80;;;;;;;;;;5071092;28;20044;-56
2023/01/29 05:08:51;;;;;;;20.73;12.68;;;;;;;;;;5072481;28;20040;-56
2023/01/29 05:11:18;;;;;;;19.40;11.80;;;;;;;;;;5071553;28;20056;-56
2023/01/29 05:13:45;;;;;;;25.42;12.00;;;;;;;;;;5072180;28;20044;-56
2023/01/29 05:16:43;;;;;;;26.27;13.55;;;;;;;;;;5070817;28;20423;-56
2023/01/29 05:19:10;;;;;;;20.00;12.80;;;;;;;;;;5070202;28;20110;-56
2023/01/29 05:21:38;;;;;;;22.60;11.15;;;;;;;;;;5071529;28;20124;-56
2023/01/29 05:24:23;;;;;;;24.65;11.68;;;;;;;;;;5071762;28;20040;-56
2023/01/29 05:29:35;;;;;;;25.27;12.10;;;;;;;;;;5074516;28;20056;-56
2023/01/29 05:32:01;;;;;;;24.02;12.20;;;;;;;;;;5069916;28;20040;-56
2023/01/29 05:34:27;;;;;;;24.30;11.98;;;;;;;;;;5072393;28;20036;-56
2023/01/29 05:36:53;;;;;;;25.90;13.27;;;;;;;;;;5076738;28;20124;-56
2023/01/29 05:39:19;;;;;;;24.90;12.85;;;;;;;;;;5076099;28;20052;-56
2023/01/29 05:41:45;;;;;;;25.30;12.82;;;;;;;;;;5074313;28;20040;-56
2023/01/29 05:44:11;;;;;;;22.20;12.27;;;;;;;;;;5077281;28;20040;-56
2023/01/29 05:46:37;;;;;;;23.00;12.48;;;;;;;;;;5076440;28;20136;-56
2023/01/29 05:49:04;;;;;;;19.27;11.00;;;;;;;;;;5077673;28;20049;-56
2023/01/29 05:51:30;;;;;;;20.73;11.02;;;;;;;;;;5075119;28;20037;-56
2023/01/29 05:53:56;;;;;;;21.73;12.73;;;;;;;;;;5075748;28;20044;-58
2023/01/29 05:56:22;;;;;;;23.15;11.77;;;;;;;;;;5075654;28;20044;-56
2023/01/29 05:58:48;;;;;;;17.13;9.88;;;;;;;;;;5075547;28;20040;-56
2023/01/29 06:01:18;;;;;;;23.48;11.60;;;;;;;;;;5075003;28;20045;-55
2023/01/29 06:03:44;;;;;;;25.90;12.30;;;;;;;;;;5107938;27;20045;-56
2023/01/29 06:06:10;;;;;;;21.38;12.95;;;;;;;;;;5076295;28;20036;-56
2023/01/29 06:08:37;;;;;;;21.48;12.38;;;;;;;;;;5107498;27;20575;-56
2023/01/29 06:11:03;;;;;;;21.13;11.23;;;;;;;;;;5075942;28;20083;-56
2023/01/29 06:13:29;;;;;;;25.17;13.60;;;;;;;;;;5076694;28;20044;-56
2023/01/29 06:15:55;;;;;;;21.65;11.07;;;;;;;;;;5076519;28;20044;-56
2023/01/29 06:18:21;;;;;;;22.27;10.65;;;;;;;;;;5075034;28;20129;-56
2023/01/29 06:20:47;;;;;;;19.50;11.07;;;;;;;;;;5077032;28;20074;-56
2023/01/29 06:23:14;;;;;;;22.38;11.05;;;;;;;;;;5076048;28;20048;-56
2023/01/29 06:25:40;;;;;;;17.67;9.95;;;;;;;;;;5076422;28;20045;-56
2023/01/29 06:28:06;;;;;;;20.02;11.02;;;;;;;;;;5076199;28;20172;-56
2023/01/29 06:30:32;;;;;;;22.73;11.07;;;;;;;;;;5076268;28;20045;-56
2023/01/29 06:33:00;;;;;;;19.73;11.68;;;;;;;;;;5074446;28;20036;-56
2023/01/29 06:35:26;;;;;;;20.52;10.30;;;;;;;;;;5071040;28;20036;-56
2023/01/29 06:37:52;;;;;;;19.25;10.07;;;;;;;;;;5073031;28;20102;-56
2023/01/29 06:40:19;;;;;;;19.88;10.68;;;;;;;;;;5074935;28;20036;-56
2023/01/29 06:42:45;;;;;;;21.27;11.80;;;;;;;;;;5075499;28;20045;-56
2023/01/29 06:45:11;;;;;;;22.65;10.40;;;;;;;;;;5076049;28;20052;-56
2023/01/29 06:47:37;;;;;;;21.60;10.27;;;;;;;;;;5074944;28;20047;-56
2023/01/29 06:50:03;;;;;;;19.40;10.65;;;;;;;;;;5076439;28;20068;-56
2023/01/29 06:52:30;;;;;;;20.17;9.75;;;;;;;;;;5081759;28;20045;-56
2023/01/29 06:54:56;;;;;;;24.52;10.23;;;;;;;;;;5075932;28;20049;-56
2023/01/29 06:57:22;;;;;;;22.30;11.43;;;;;;;;;;5076286;28;20850;-56
2023/01/29 06:59:48;;;;;;;19.17;9.43;;;;;;;;;;5075997;28;20079;-56
2023/01/29 07:02:14;;;;;;;20.52;11.07;;;;;;;;;;5066827;28;20634;-56
2023/01/29 07:04:41;;;;;;;23.55;11.32;;;;;;;;;;5107947;27;20527;-56
2023/01/29 07:07:12;;;;;;;21.23;11.60;;;;;;;;;;5076715;28;20045;-56
2023/01/29 07:09:41;;;;;;;24.60;11.50;;;;;;;;;;5073018;28;20029;-56
2023/01/29 07:12:08;;;;;;;20.50;11.02;;;;;;;;;;5071992;28;20061;-56
2023/01/29 07:14:34;;;;;;;23.67;11.85;;;;;;;;;;5074582;28;21254;-56
2023/01/29 07:17:00;;;;;;;24.73;11.52;;;;;;;;;;5074708;28;20044;-56
2023/01/29 07:19:26;;;;;;;19.83;11.38;;;;;;;;;;5089562;27;20037;-56
2023/01/29 07:21:52;;;;;;;25.13;10.73;;;;;;;;;;5074955;28;20044;-57
2023/01/29 07:24:18;;;;;;;25.42;10.18;;;;;;;;;;5073949;28;20147;-56
2023/01/29 07:26:45;;;;;;;20.38;9.55;;;;;;;;;;5075817;28;20514;-56
2023/01/29 07:29:11;;;;;;;19.40;10.45;;;;;;;;;;5075051;28;20086;-56
2023/01/29 07:31:37;;;;;;;21.05;10.07;;;;;;;;;;5073858;28;20980;-56
2023/01/29 07:34:03;;;;;;;17.35;10.82;;;;;;;;;;5072464;28;20041;-56
2023/01/29 07:36:29;;;;;;;26.00;11.65;;;;;;;;;;5073984;28;20159;-56
2023/01/29 07:38:55;;;;;;;22.42;11.38;;;;;;;;;;5072937;28;20036;-56
2023/01/29 07:41:21;;;;;;;22.98;10.57;;;;;;;;;;5070934;28;21021;-56
2023/01/29 07:43:48;;;;;;;21.30;10.25;;;;;;;;;;5066046;28;20102;-56
2023/01/29 07:46:14;;;;;;;20.38;12.07;;;;;;;;;;5066058;28;20040;-57
2023/01/29 07:48:40;;;;;;;24.33;11.45;;;;;;;;;;5071021;28;20052;-57
2023/01/29 07:51:06;;;;;;;21.92;10.70;;;;;;;;;;5070225;28;20842;-57
2023/01/29 07:53:32;;;;;;;21.77;12.35;;;;;;;;;;5064547;28;20718;-57
2023/01/29 07:55:58;;;;;;;23.88;11.88;;;;;;;;;;5072530;28;20044;-57
2023/01/29 07:58:24;;;;;;;23.50;11.52;;;;;;;;;;5071324;28;20043;-57
2023/01/29 08:00:50;;;;;;;24.27;14.10;;;;;;;;;;5066269;28;20040;-57
2023/01/29 08:03:18;;;;;;;21.58;11.82;;;;;;;;;;5074079;28;20040;-57
2023/01/29 08:05:45;;;;;;;24.80;13.88;;;;;;;;;;5089083;27;20098;-57
2023/01/29 08:08:11;;;;;;;27.27;13.63;;;;;;;;;;5074086;28;20028;-57
2023/01/29 08:10:38;;;;;;;27.83;13.60;;;;;;;;;;5065358;28;20044;-57
2023/01/29 08:13:04;;;;;;;21.55;12.35;;;;;;;;;;5074435;27;20451;-57
2023/01/29 08:15:30;;;;;;;22.83;11.55;;;;;;;;;;5075254;28;20059;-57
2023/01/29 08:17:56;;;;;;;31.65;14.57;;;;;;;;;;5072986;28;20040;-57
2023/01/29 08:20:22;;;;;;;28.52;15.15;;;;;;;;;;5072254;28;20036;-57
2023/01/29 08:22:48;;;;;;;29.23;14.98;;;;;;;;;;5070723;28;20045;-57
2023/01/29 08:25:15;;;;;;;24.35;13.00;;;;;;;;;;5068012;28;20044;-57
2023/01/29 08:27:42;;;;;;;24.35;13.63;;;;;;;;;;5104302;27;20166;-57
2023/01/29 08:30:09;;;;;;;24.08;13.52;;;;;;;;;;5088664;27;20492;-57
2023/01/29 08:32:35;;;;;;;23.98;13.52;;;;;;;;;;5070487;28;20332;-57
2023/01/29 08:35:01;;;;;;;28.30;14.68;;;;;;;;;;5071014;28;20044;-57
2023/01/29 08:37:28;;;;;;;26.35;14.27;;;;;;;;;;5074425;28;20075;-57
2023/01/29 08:39:54;;;;;;;28.02;13.35;;;;;;;;;;5072215;28;20047;-57
2023/01/29 08:42:20;;;;;;;29.92;14.25;;;;;;;;;;5072611;28;20044;-57
2023/01/29 08:44:46;;;;;;;26.83;14.02;;;;;;;;;;5069096;28;20870;-57
2023/01/29 08:47:12;;;;;;;28.70;15.15;;;;;;;;;;5066000;28;20056;-57
2023/01/29 08:49:38;;;;;;;22.40;11.48;;;;;;;;;;5083145;27;20055;-57
2023/01/29 08:52:04;;;;;;;32.20;16.27;;;;;;;;;;5066920;28;20041;-57
2023/01/29 08:54:30;;;;;;;27.38;14.68;;;;;;;;;;5066078;28;20055;-57
2023/01/29 08:56:57;;;;;;;33.33;16.00;;;;;;;;;;5070062;28;20203;-57
2023/01/29 08:59:23;;;;;;;33.30;16.70;;;;;;;;;;5071285;28;20037;-59
2023/01/29 09:01:49;;;;;;;31.58;16.30;;;;;;;;;;5070657;28;20056;-57
2023/01/29 09:04:15;;;;;;;34.92;18.13;;;;;;;;;;5068652;28;20037;-57
2023/01/29 09:06:41;;;;;;;31.92;16.67;;;;;;;;;;5075009;28;20500;-59
2023/01/29 09:09:07;;;;;;;33.83;18.48;;;;;;;;;;5075708;28;20527;-57
2023/01/29 09:11:33;;;;;;;26.90;14.82;;;;;;;;;;5073139;28;20527;-57
2023/01/29 09:13:59;;;;;;;31.58;17.33;;;;;;;;;;5071054;28;20045;-57
2023/01/29 09:16:25;;;;;;;26.70;15.02;;;;;;;;;;5075374;28;20102;-57
2023/01/29 09:18:53;;;;;;;30.55;15.48;;;;;;;;;;5071501;28;20625;-57
2023/01/29 09:21:19;;;;;;;31.08;16.98;;;;;;;;;;5072226;27;20044;-58
2023/01/29 09:23:45;;;;;;;34.47;16.52;;;;;;;;;;5069314;28;20037;-57
2023/01/29 09:26:11;;;;;;;27.33;14.73;;;;;;;;;;5071914;28;21285;-57
2023/01/29 09:28:37;;;;;;;27.55;14.65;;;;;;;;;;5068256;28;20033;-58
2023/01/29 09:31:04;;;;;;;26.67;15.00;;;;;;;;;;5070549;28;20044;-58
2023/01/29 09:33:31;;;;;;;25.83;14.30;;;;;;;;;;5069977;28;20524;-58
2023/01/29 09:35:57;;;;;;;26.92;13.20;;;;;;;;;;5071624;28;20052;-58
2023/01/29 09:38:23;;;;;;;26.30;15.25;;;;;;;;;;5064860;28;20098;-57
2023/01/29 09:40:50;;;;;;;25.20;12.77;;;;;;;;;;5068483;28;20101;-57
2023/01/29 09:43:18;;;;;;;22.58;12.07;;;;;;;;;;5068380;28;20051;-57
2023/01/29 09:45:51;;;;;;;23.33;12.63;;;;;;;;;;5070650;28;20033;-58
2023/01/29 09:48:17;;;;;;;21.23;12.57;;;;;;;;;;5065119;28;20037;-57
2023/01/29 09:50:46;;;;;;;24.73;12.50;;;;;;;;;;5063204;28;20052;-57
2023/01/29 09:53:21;;;;;;;21.05;13.00;;;;;;;;;;5079022;28;20174;-58
2023/01/29 09:56:13;;;;;;;25.75;13.48;;;;;;;;;;5071055;28;20167;-58
2023/01/29 09:58:41;;;;;;;24.02;12.18;;;;;;;;;;5069113;27;20052;-58
2023/01/29 10:01:07;;;;;;;24.23;13.18;;;;;;;;;;5060268;28;20135;-58
2023/01/29 10:03:51;;;;;;;24.88;13.98;;;;;;;;;;5067376;27;20047;-58
2023/01/29 10:06:33;;;;;;;22.80;12.38;;;;;;;;;;5068236;28;20523;-58
2023/01/29 10:09:14;;;;;;;22.17;12.07;;;;;;;;;;5069992;28;20052;-57
2023/01/29 10:11:46;;;;;;;18.23;9.80;;;;;;;;;;5069637;28;20143;-58
2023/01/29 10:14:16;;;;;;;26.15;13.07;;;;;;;;;;5073341;28;20049;-58
2023/01/29 10:17:05;;;;;;;26.33;12.93;;;;;;;;;;5074491;28;20040;-58
2023/01/29 10:19:54;;;;;;;26.10;13.63;;;;;;;;;;5073600;27;20074;-58
2023/01/29 10:22:23;;;;;;;18.95;11.73;;;;;;;;;;5071083;28;20206;-57
2023/01/29 10:24:55;;;;;;;19.90;11.27;;;;;;;;;;5077846;28;20041;-58
2023/01/29 10:27:21;;;;;;;23.92;14.05;;;;;;;;;;5076201;28;20071;-57
2023/01/29 10:29:50;;;;;;;25.77;14.23;;;;;;;;;;5076018;28;20075;-58
2023/01/29 10:32:22;;;;;;;21.02;11.02;;;;;;;;;;5076230;28;20047;-57
2023/01/29 10:34:51;;;;;;;24.33;12.70;;;;;;;;;;5107944;27;20044;-57
2023/01/29 10:37:18;;;;;;;27.50;13.52;;;;;;;;;;5075800;28;20630;-57
2023/01/29 10:39:44;;;;;;;28.00;14.38;;;;;;;;;;5076857;28;20036;-57
2023/01/29 10:42:18;;;;;;;25.55;12.52;;;;;;;;;;5085243;28;20538;-57
2023/01/29 10:44:49;;;;;;;26.23;14.13;;;;;;;;;;5076017;28;20068;-58
2023/01/29 10:47:33;;;;;;;21.50;11.45;;;;;;;;;;5075897;28;20544;-58
2023/01/29 10:50:05;;;;;;;24.95;11.20;;;;;;;;;;5075484;28;20523;-58
2023/01/29 10:52:31;;;;;;;;;;;;;;;;;;5076297;28;20123;-58
2023/01/29 10:54:57;;;;;;;19.95;10.98;;;;;;;;;;5076365;28;19926;-58
2023/01/29 10:57:50;;;;;;;19.83;11.07;;;;;;;;;;5076911;28;20037;-58
2023/01/29 11:00:20;;;;;;;19.02;11.93;;;;;;;;;;5076004;28;20044;-57
2023/01/29 11:02:47;;;;;;;22.52;11.70;;;;;;;;;;5074067;28;20880;-58
2023/01/29 11:05:20;;;;;;;27.65;13.45;;;;;;;;;;5076867;28;20033;-58
2023/01/29 11:07:47;;;;;;;19.13;10.27;;;;;;;;;;5075175;28;20040;-57
2023/01/29 11:10:19;;;;;;;16.10;11.35;;;;;;;;;;5074029;28;20965;-57
2023/01/29 11:12:45;;;;;;;14.52;8.55;;;;;;;;;;5074841;28;20047;-57
2023/01/29 11:15:22;;;;;;;15.88;8.73;;;;;;;;;;5073115;28;20040;-57
2023/01/29 11:18:10;;;;;;;22.00;9.90;;;;;;;;;;5075500;28;20044;-57
2023/01/29 11:20:36;;;;;;;11.20;5.68;;;;;;;;;;5075668;28;20048;-58
2023/01/29 11:23:02;;;;;;;10.15;5.25;;;;;;;;;;5073385;28;20070;-58
2023/01/29 11:25:31;;;;;;;12.32;7.80;;;;;;;;;;5074451;28;20041;-58
2023/01/29 11:28:04;;;;;;;13.73;5.68;;;;;;;;;;5074234;28;20041;-58
2023/01/29 11:30:39;;;;;;;14.25;9.50;;;;;;;;;;5089252;27;20071;-58
2023/01/29 11:33:08;;;;;;;12.15;7.15;;;;;;;;;;5075524;28;20124;-58
2023/01/29 11:35:35;;;;;;;12.60;6.18;;;;;;;;;;5075986;28;20048;-58
2023/01/29 11:38:09;;;;;;;12.93;7.45;;;;;;;;;;5073976;28;20037;-58
2023/01/29 11:40:36;;;;;;;14.52;7.55;;;;;;;;;;5075500;28;21027;-58
2023/01/29 11:43:19;;;;;;;9.95;5.00;;;;;;;;;;5071947;28;20048;-58
2023/01/29 11:45:45;;;;;;;11.85;6.57;;;;;;;;;;5073966;28;20045;-58
2023/01/29 11:48:16;;;;;;;9.48;6.15;;;;;;;;;;5089563;27;20685;-58
2023/01/29 11:50:43;;;;;;;13.27;6.82;;;;;;;;;;5075765;28;20180;-58
2023/01/29 11:53:22;;;;;;;10.35;5.03;;;;;;;;;;5068535;28;20044;-58
2023/01/29 11:55:48;;;;;;;8.57;5.88;;;;;;;;;;5072729;28;20170;-58
2023/01/29 11:58:27;;;;;;;9.48;5.85;;;;;;;;;;5073685;28;20047;-58
2023/01/29 12:00:54;;;;;;;3.85;2.50;;;;;;;;;;5074361;28;20064;-58
2023/01/29 12:03:23;;;;;;;8.50;5.00;;;;;;;;;;5073887;28;20056;-58
2023/01/29 12:06:00;;;;;;;8.40;5.05;;;;;;;;;;5073193;28;20075;-58
2023/01/29 12:08:30;;;;;;;8.85;4.07;;;;;;;;;;5073272;28;20049;-58
2023/01/29 12:11:07;;;;;;;7.32;4.75;;;;;;;;;;5072464;28;20246;-59
2023/01/29 12:13:34;;;;;;;8.80;6.32;;;;;;;;;;5073672;28;20045;-59
2023/01/29 12:16:06;;;;;;;8.60;4.63;;;;;;;;;;5072373;28;20146;-58
2023/01/29 12:18:37;;;;;;;8.95;4.57;;;;;;;;;;5073356;28;20090;-58
2023/01/29 12:21:13;;;;;;;9.80;4.93;;;;;;;;;;5070994;28;20044;-58
2023/01/29 12:23:39;;;;;;;10.27;5.28;;;;;;;;;;5071975;28;20041;-58
2023/01/29 12:26:14;;;;;;;7.38;5.00;;;;;;;;;;5072486;28;20074;-58
2023/01/29 12:28:59;;;;;;;6.97;4.80;;;;;;;;;;5073739;28;20037;-58
2023/01/29 12:31:58;;;;;;;5.68;2.60;;;;;;;;;;5074626;28;20064;-58
2023/01/29 12:34:38;;;;;;;3.60;2.28;;;;;;;;;;5071321;28;20061;-58
2023/01/29 12:37:22;;;;;;;3.40;1.48;;;;;;;;;;5071113;28;20424;-58
2023/01/29 12:39:49;;;;;;;4.28;2.60;;;;;;;;;;5069778;28;20048;-58
2023/01/29 12:42:18;;;;;;;5.80;3.53;;;;;;;;;;5074641;28;21025;-58
2023/01/29 12:44:49;;;;;;;6.13;2.85;;;;;;;;;;5072004;28;20045;-58
2023/01/29 12:47:25;;;;;;;6.05;4.07;;;;;;;;;;5064960;28;20048;-58
2023/01/29 12:49:53;;;;;;;6.32;3.50;;;;;;;;;;5071168;28;20041;-58
2023/01/29 12:52:36;;;;;;;4.53;3.17;;;;;;;;;;5073855;28;20046;-58
2023/01/29 12:55:11;;;;;;;5.28;3.13;;;;;;;;;;5069730;28;20153;-58
2023/01/29 12:57:37;;;;;;;7.78;3.03;;;;;;;;;;5072448;28;20060;-58
2023/01/29 13:00:23;;;;;;;7.43;3.33;;;;;;;;;;5072941;28;20059;-58
2023/01/29 13:03:08;;;;;;;4.35;3.53;;;;;;;;;;5071072;28;20056;-58
2023/01/29 13:05:45;;;;;;;4.78;3.40;;;;;;;;;;5072260;28;20643;-58
2023/01/29 13:08:18;;;;;;;5.28;3.42;;;;;;;;;;5071829;28;20032;-59
2023/01/29 13:10:48;;;;;;;6.20;3.92;;;;;;;;;;5070304;28;20056;-58
2023/01/29 13:13:33;;;;;;;6.07;3.35;;;;;;;;;;5073671;28;20048;-57
2023/01/29 13:16:03;;;;;;;5.85;3.17;;;;;;;;;;5068564;28;20052;-58
2023/01/29 13:18:44;;;;;;;5.85;3.40;;;;;;;;;;5072229;28;20041;-58
2023/01/29 13:21:15;;;;;;;3.83;2.78;;;;;;;;;;5069549;28;20103;-58
2023/01/29 13:23:43;;;;;;;4.27;3.37;;;;;;;;;;5071568;28;20064;-58
2023/01/29 13:26:09;;;;;;;5.22;3.08;;;;;;;;;;5072101;28;20044;-58
2023/01/29 13:28:36;;;;;;;3.88;2.30;;;;;;;;;;5103427;27;20789;-58
2023/01/29 13:31:11;;;;;;;5.47;2.97;;;;;;;;;;5070821;28;20082;-58
2023/01/29 13:33:38;;;;;;;7.22;5.65;;;;;;;;;;5068670;28;20175;-58
2023/01/29 13:36:04;;;;;;;4.75;2.65;;;;;;;;;;5071586;28;20044;-58
2023/01/29 13:38:32;;;;;;;4.95;4.00;;;;;;;;;;5070784;28;20101;-58
2023/01/29 13:41:07;;;;;;;17.20;3.45;;;;;;;;;;5072831;28;20124;-58
2023/01/29 13:43:38;;;;;;;7.18;2.72;;;;;;;;;;5072934;28;20242;-58
2023/01/29 13:46:09;;;;;;;5.30;3.25;;;;;;;;;;5070269;28;20083;-58
2023/01/29 13:48:40;;;;;;;4.85;3.33;;;;;;;;;;5073366;28;20044;-58
2023/01/29 13:51:16;;;;;;;4.27;2.80;;;;;;;;;;5072470;28;20080;-58
2023/01/29 13:53:43;;;;;;;5.38;3.10;;;;;;;;;;5070422;28;20840;-58
2023/01/29 13:56:27;;;;;;;3.83;2.85;;;;;;;;;;5069457;28;20044;-58
2023/01/29 13:58:53;;;;;;;4.68;2.88;;;;;;;;;;5063377;28;20075;-58
2023/01/29 14:01:39;;;;;;;3.17;2.33;;;;;;;;;;5069079;28;20041;-58
2023/01/29 14:04:35;;;;;;;4.60;2.58;;;;;;;;;;5071785;28;20083;-58
2023/01/29 14:07:05;;;;;;;5.32;3.10;;;;;;;;;;5061879;28;20853;-58
2023/01/29 14:09:31;;;;;;;3.63;2.95;;;;;;;;;;5073126;28;20133;-58
2023/01/29 14:11:57;;;;;;;9.00;2.80;;;;;;;;;;5072742;28;20128;-58
2023/01/29 14:14:42;;;;;;;3.72;2.80;;;;;;;;;;5074951;28;20051;-58
2023/01/29 14:17:08;;;;;;;8.57;3.97;;;;;;;;;;5074562;28;20044;-58
2023/01/29 14:19:34;;;;;;;4.05;2.92;;;;;;;;;;5075439;28;20090;-58
2023/01/29 14:22:00;;;;;;;7.00;3.15;;;;;;;;;;5073728;28;21034;-58
2023/01/29 14:24:30;;;;;;;5.63;3.42;;;;;;;;;;5090846;27;20055;-58
2023/01/29 14:26:56;;;;;;;6.25;2.97;;;;;;;;;;5075670;28;20201;-58
2023/01/29 14:29:28;;;;;;;4.53;3.00;;;;;;;;;;5075967;28;20048;-58
2023/01/29 14:32:08;;;;;;;5.25;2.40;;;;;;;;;;5075135;28;20043;-58
2023/01/29 14:34:46;;;;;;;5.65;3.17;;;;;;;;;;5074586;28;20041;-59
2023/01/29 14:37:15;;;;;;;4.15;2.42;;;;;;;;;;5073012;28;20053;-58
2023/01/29 14:40:04;;;;;;;5.57;2.50;;;;;;;;;;5074232;28;20044;-58
2023/01/29 14:42:35;;;;;;;4.50;2.75;;;;;;;;;;5075461;27;20928;-58
2023/01/29 14:45:08;;;;;;;4.63;2.90;;;;;;;;;;5074490;28;20090;-58
2023/01/29 14:47:33;;;;;;;;;;;;;;;;;;5075442;28;20478;-58
2023/01/29 14:50:01;;;;;;;3.75;3.05;;;;;;;;;;5106985;27;19920;-58
2023/01/29 14:52:32;;;;;;;5.10;2.85;;;;;;;;;;5074975;28;20040;-58
2023/01/29 14:55:00;;;;;;;4.60;2.88;;;;;;;;;;5074520;28;20040;-58
2023/01/29 14:57:28;;;;;;;8.93;3.15;;;;;;;;;;5073529;28;20082;-58
2023/01/29 15:00:20;;;;;;;4.88;2.75;;;;;;;;;;5066397;28;20088;-58
2023/01/29 15:02:49;;;;;;;3.85;2.50;;;;;;;;;;5072498;27;20053;-58
2023/01/29 15:05:19;;;;;;;4.80;3.40;;;;;;;;;;5071845;28;20059;-58
2023/01/29 15:07:55;;;;;;;4.07;2.83;;;;;;;;;;5073173;28;20581;-58
2023/01/29 15:10:35;;;;;;;4.25;3.00;;;;;;;;;;5076330;28;20056;-58
2023/01/29 15:13:04;;;;;;;3.33;2.17;;;;;;;;;;5074948;28;20056;-58
2023/01/29 15:15:36;;;;;;;4.72;2.85;;;;;;;;;;5075192;28;20063;-58
2023/01/29 15:18:08;;;;;;;5.97;2.80;;;;;;;;;;5076332;28;20167;-59